createdAt,value
2016-07-24T00:00:54.351Z,0
2016-07-24T00:01:54.349Z,0
2016-07-24T00:02:55.089Z,0
2016-07-24T00:03:54.407Z,0
2016-07-24T00:04:55.164Z,0
2016-07-24T00:05:54.482Z,0
2016-07-24T00:06:55.207Z,0
2016-07-24T00:07:54.521Z,0
2016-07-24T00:08:55.262Z,0
2016-07-24T00:09:55.283Z,0
2016-07-24T00:10:57.697Z,0
2016-07-24T00:11:54.637Z,0
2016-07-24T00:12:56.092Z,0
2016-07-24T00:13:55.411Z,0
2016-07-24T00:14:54.719Z,0
2016-07-24T00:15:54.767Z,0
2016-07-24T00:16:55.490Z,0
2016-07-24T00:17:54.798Z,0
2016-07-24T00:18:54.825Z,0
2016-07-24T00:19:54.859Z,0
2016-07-24T00:20:54.882Z,0
2016-07-24T00:21:54.913Z,0
2016-07-24T00:22:54.965Z,0
2016-07-24T00:23:54.983Z,0
2016-07-24T00:24:55.003Z,0
2016-07-24T00:25:55.031Z,0
2016-07-24T00:26:55.062Z,0
2016-07-24T00:27:55.086Z,0
2016-07-24T00:28:55.109Z,0
2016-07-24T00:29:55.142Z,0
2016-07-24T00:30:55.881Z,0
2016-07-24T00:31:55.202Z,0
2016-07-24T00:32:56.651Z,0
2016-07-24T00:33:55.256Z,0
2016-07-24T00:34:56.701Z,0
2016-07-24T00:35:55.313Z,0
2016-07-24T00:36:55.345Z,0
2016-07-24T00:37:55.384Z,0
2016-07-24T00:38:55.399Z,0
2016-07-24T00:39:55.419Z,0
2016-07-24T00:40:55.452Z,0
2016-07-24T00:41:55.480Z,0
2016-07-24T00:42:55.510Z,0
2016-07-24T00:43:55.536Z,0
2016-07-24T00:44:56.272Z,0
2016-07-24T00:45:55.605Z,0
2016-07-24T00:46:55.631Z,0
2016-07-24T00:47:55.655Z,0
2016-07-24T00:48:56.392Z,0
2016-07-24T00:49:55.713Z,0
2016-07-24T00:50:55.746Z,0
2016-07-24T00:51:55.768Z,0
2016-07-24T00:52:55.814Z,0
2016-07-24T00:53:55.824Z,0
2016-07-24T00:54:55.854Z,0
2016-07-24T00:55:56.586Z,0
2016-07-24T00:56:56.619Z,0
2016-07-24T00:57:55.934Z,0
2016-07-24T00:58:55.971Z,0
2016-07-24T00:59:55.991Z,0
2016-07-24T01:00:56.117Z,0
2016-07-24T01:01:56.766Z,0
2016-07-24T01:02:57.507Z,0
2016-07-24T01:03:56.113Z,0
2016-07-24T01:04:56.843Z,0
2016-07-24T01:05:56.183Z,0
2016-07-24T01:06:56.186Z,0
2016-07-24T01:07:56.930Z,0
2016-07-24T01:08:56.246Z,0
2016-07-24T01:09:56.987Z,0
2016-07-24T01:10:56.313Z,0
2016-07-24T01:11:57.764Z,0
2016-07-24T01:12:56.381Z,0
2016-07-24T01:13:56.401Z,0
2016-07-24T01:14:56.435Z,0
2016-07-24T01:15:56.454Z,0
2016-07-24T01:16:56.480Z,0
2016-07-24T01:17:56.514Z,0
2016-07-24T01:18:57.252Z,0
2016-07-24T01:19:56.576Z,0
2016-07-24T01:20:56.596Z,0
2016-07-24T01:21:56.619Z,0
2016-07-24T01:22:57.351Z,0
2016-07-24T01:23:58.118Z,0
2016-07-24T01:24:57.414Z,0
2016-07-24T01:25:57.445Z,0
2016-07-24T01:26:58.181Z,0
2016-07-24T01:27:56.795Z,0
2016-07-24T01:28:56.814Z,0
2016-07-24T01:29:57.561Z,0
2016-07-24T01:30:56.874Z,0
2016-07-24T01:31:56.899Z,0
2016-07-24T01:32:57.640Z,0
2016-07-24T01:33:57.667Z,0
2016-07-24T01:34:56.999Z,0
2016-07-24T01:35:57.723Z,0
2016-07-24T01:36:57.048Z,0
2016-07-24T01:37:57.072Z,0
2016-07-24T01:38:57.811Z,0
2016-07-24T01:39:57.124Z,0
2016-07-24T01:40:57.158Z,0
2016-07-24T01:41:57.213Z,0
2016-07-24T01:42:57.246Z,0
2016-07-24T01:43:57.254Z,0
2016-07-24T01:44:57.273Z,0
2016-07-24T01:45:57.304Z,0
2016-07-24T01:46:57.327Z,0
2016-07-24T01:47:58.065Z,0
2016-07-24T01:48:57.384Z,0
2016-07-24T01:49:57.425Z,0
2016-07-24T01:50:57.459Z,0
2016-07-24T01:51:57.510Z,0
2016-07-24T01:52:57.550Z,0
2016-07-24T01:53:57.547Z,0
2016-07-24T01:54:57.552Z,0
2016-07-24T01:55:57.604Z,0
2016-07-24T01:56:57.613Z,0
2016-07-24T01:57:58.421Z,0
2016-07-24T01:58:57.667Z,0
2016-07-24T01:59:58.423Z,0
2016-07-24T02:00:58.456Z,0
2016-07-24T02:01:58.467Z,0
2016-07-24T02:02:57.786Z,0
2016-07-24T02:03:57.811Z,0
2016-07-24T02:04:58.548Z,0
2016-07-24T02:05:58.581Z,0
2016-07-24T02:06:58.614Z,0
2016-07-24T02:07:58.648Z,0
2016-07-24T02:08:57.978Z,0
2016-07-24T02:09:58.066Z,0
2016-07-24T02:10:58.013Z,0
2016-07-24T02:11:58.747Z,0
2016-07-24T02:12:58.069Z,0
2016-07-24T02:13:58.091Z,0
2016-07-24T02:14:58.859Z,0
2016-07-24T02:15:58.156Z,0
2016-07-24T02:16:58.892Z,0
2016-07-24T02:17:58.920Z,0
2016-07-24T02:18:58.964Z,0
2016-07-24T02:19:58.979Z,0
2016-07-24T02:20:59.008Z,0
2016-07-24T02:21:58.323Z,0
2016-07-24T02:22:59.098Z,0
2016-07-24T02:23:58.391Z,0
2016-07-24T02:24:58.416Z,0
2016-07-24T02:25:58.438Z,0
2016-07-24T02:26:58.469Z,0
2016-07-24T02:27:59.260Z,0
2016-07-24T02:28:58.529Z,0
2016-07-24T02:29:59.289Z,0
2016-07-24T02:30:58.597Z,0
2016-07-24T02:31:58.673Z,0
2016-07-24T02:32:59.344Z,0
2016-07-24T02:33:58.672Z,0
2016-07-24T02:34:58.693Z,0
2016-07-24T02:35:59.442Z,0
2016-07-24T02:36:58.756Z,0
2016-07-24T02:37:59.599Z,0
2016-07-24T02:38:58.824Z,0
2016-07-24T02:39:58.855Z,0
2016-07-24T02:40:59.586Z,0
2016-07-24T02:41:59.604Z,0
2016-07-24T02:42:58.945Z,0
2016-07-24T02:43:58.961Z,0
2016-07-24T02:44:59.734Z,0
2016-07-24T02:45:59.737Z,0
2016-07-24T02:46:59.762Z,0
2016-07-24T02:47:59.069Z,0
2016-07-24T02:49:00.527Z,0
2016-07-24T02:49:59.141Z,0
2016-07-24T02:50:59.161Z,0
2016-07-24T02:51:59.198Z,0
2016-07-24T02:52:59.213Z,0
2016-07-24T02:53:59.297Z,0
2016-07-24T02:54:59.271Z,0
2016-07-24T02:55:59.311Z,0
2016-07-24T02:57:00.036Z,0
2016-07-24T02:57:59.367Z,0
2016-07-24T02:59:00.097Z,0
2016-07-24T02:59:59.415Z,0
2016-07-24T03:00:59.460Z,0
2016-07-24T03:02:00.180Z,0
2016-07-24T03:03:00.210Z,0
2016-07-24T03:03:59.551Z,0
2016-07-24T03:04:59.561Z,0
2016-07-24T03:05:59.585Z,0
2016-07-24T03:06:59.611Z,0
2016-07-24T03:07:59.638Z,0
2016-07-24T03:08:59.679Z,0
2016-07-24T03:09:59.703Z,0
2016-07-24T03:11:00.436Z,0
2016-07-24T03:11:59.763Z,0
2016-07-24T03:12:59.794Z,0
2016-07-24T03:13:59.814Z,0
2016-07-24T03:14:59.841Z,0
2016-07-24T03:15:59.878Z,0
2016-07-24T03:17:00.616Z,0
2016-07-24T03:17:59.933Z,0
2016-07-24T03:18:59.982Z,0
2016-07-24T03:19:59.988Z,0
2016-07-24T03:21:00.013Z,0
2016-07-24T03:22:00.755Z,0
2016-07-24T03:23:00.090Z,0
2016-07-24T03:24:00.811Z,0
2016-07-24T03:25:00.832Z,0
2016-07-24T03:26:00.869Z,0
2016-07-24T03:27:00.913Z,0
2016-07-24T03:28:00.220Z,0
2016-07-24T03:29:00.273Z,0
2016-07-24T03:30:01.688Z,0
2016-07-24T03:31:01.012Z,0
2016-07-24T03:32:00.324Z,0
2016-07-24T03:33:01.059Z,0
2016-07-24T03:34:00.395Z,0
2016-07-24T03:35:02.547Z,0
2016-07-24T03:36:00.449Z,0
2016-07-24T03:37:00.486Z,0
2016-07-24T03:38:00.507Z,0
2016-07-24T03:39:00.529Z,0
2016-07-24T03:40:00.557Z,0
2016-07-24T03:41:01.293Z,0
2016-07-24T03:42:00.609Z,0
2016-07-24T03:43:01.358Z,0
2016-07-24T03:44:00.696Z,0
2016-07-24T03:45:00.703Z,0
2016-07-24T03:46:01.429Z,0
2016-07-24T03:47:01.460Z,0
2016-07-24T03:48:00.796Z,0
2016-07-24T03:49:00.818Z,0
2016-07-24T03:50:00.841Z,0
2016-07-24T03:51:01.589Z,0
2016-07-24T03:52:00.910Z,0
2016-07-24T03:53:00.933Z,0
2016-07-24T03:54:00.954Z,0
2016-07-24T03:55:01.695Z,0
2016-07-24T03:56:01.010Z,0
2016-07-24T03:57:01.032Z,0
2016-07-24T03:58:01.078Z,0
2016-07-24T03:59:01.121Z,0
2016-07-24T04:00:01.862Z,0
2016-07-24T04:01:02.573Z,0
2016-07-24T04:02:01.187Z,0
2016-07-24T04:03:01.923Z,0
2016-07-24T04:04:02.667Z,0
2016-07-24T04:05:01.979Z,0
2016-07-24T04:06:01.293Z,0
2016-07-24T04:07:02.046Z,0
2016-07-24T04:08:02.079Z,0
2016-07-24T04:09:01.384Z,0
2016-07-24T04:10:01.413Z,0
2016-07-24T04:11:01.468Z,0
2016-07-24T04:12:01.487Z,0
2016-07-24T04:13:02.216Z,0
2016-07-24T04:14:01.524Z,0
2016-07-24T04:15:01.561Z,0
2016-07-24T04:16:01.584Z,0
2016-07-24T04:17:01.622Z,0
2016-07-24T04:18:02.351Z,0
2016-07-24T04:19:01.690Z,0
2016-07-24T04:20:02.405Z,0
2016-07-24T04:21:02.444Z,0
2016-07-24T04:22:02.460Z,0
2016-07-24T04:23:01.786Z,0
2016-07-24T04:24:01.810Z,0
2016-07-24T04:25:01.833Z,0
2016-07-24T04:26:01.890Z,0
2016-07-24T04:27:01.910Z,0
2016-07-24T04:28:01.927Z,0
2016-07-24T04:29:01.963Z,0
2016-07-24T04:30:01.986Z,0
2016-07-24T04:31:02.024Z,0
2016-07-24T04:32:02.747Z,0
2016-07-24T04:33:03.482Z,0
2016-07-24T04:34:02.102Z,0
2016-07-24T04:35:02.130Z,0
2016-07-24T04:36:02.152Z,0
2016-07-24T04:37:02.192Z,0
2016-07-24T04:38:03.643Z,0
2016-07-24T04:39:03.660Z,0
2016-07-24T04:40:02.990Z,0
2016-07-24T04:41:02.306Z,0
2016-07-24T04:42:03.053Z,0
2016-07-24T04:43:02.352Z,0
2016-07-24T04:44:02.387Z,0
2016-07-24T04:45:03.122Z,0
2016-07-24T04:46:02.439Z,0
2016-07-24T04:47:02.469Z,0
2016-07-24T04:48:02.513Z,0
2016-07-24T04:49:03.256Z,0
2016-07-24T04:50:02.547Z,0
2016-07-24T04:51:03.305Z,0
2016-07-24T04:52:03.322Z,0
2016-07-24T04:53:02.635Z,0
2016-07-24T04:54:02.666Z,0
2016-07-24T04:55:03.405Z,0
2016-07-24T04:56:02.729Z,0
2016-07-24T04:57:02.748Z,0
2016-07-24T04:58:03.487Z,0
2016-07-24T04:59:02.801Z,0
2016-07-24T05:00:02.853Z,0
2016-07-24T05:01:02.862Z,0
2016-07-24T05:02:04.312Z,0
2016-07-24T05:03:02.924Z,0
2016-07-24T05:04:02.949Z,0
2016-07-24T05:05:02.973Z,0
2016-07-24T05:06:03.005Z,0
2016-07-24T05:07:03.764Z,0
2016-07-24T05:08:03.769Z,0
2016-07-24T05:09:03.799Z,0
2016-07-24T05:10:03.823Z,0
2016-07-24T05:11:03.154Z,0
2016-07-24T05:12:03.175Z,0
2016-07-24T05:13:03.916Z,0
2016-07-24T05:14:03.247Z,0
2016-07-24T05:15:03.975Z,0
2016-07-24T05:16:03.297Z,0
2016-07-24T05:17:03.318Z,0
2016-07-24T05:18:03.348Z,0
2016-07-24T05:19:03.373Z,0
2016-07-24T05:20:03.413Z,0
2016-07-24T05:21:03.448Z,0
2016-07-24T05:22:04.171Z,0
2016-07-24T05:23:03.485Z,0
2016-07-24T05:24:03.520Z,0
2016-07-24T05:25:04.256Z,0
2016-07-24T05:26:03.574Z,0
2016-07-24T05:27:04.313Z,0
2016-07-24T05:28:03.638Z,0
2016-07-24T05:29:03.671Z,0
2016-07-24T05:30:04.417Z,0
2016-07-24T05:31:05.148Z,0
2016-07-24T05:32:04.461Z,0
2016-07-24T05:33:03.774Z,0
2016-07-24T05:34:03.804Z,0
2016-07-24T05:35:03.833Z,0
2016-07-24T05:36:03.882Z,0
2016-07-24T05:37:03.900Z,0
2016-07-24T05:38:03.920Z,0
2016-07-24T05:39:03.949Z,0
2016-07-24T05:40:04.010Z,0
2016-07-24T05:41:04.029Z,0
2016-07-24T05:42:04.034Z,0
2016-07-24T05:43:04.064Z,0
2016-07-24T05:44:04.798Z,0
2016-07-24T05:45:04.120Z,0
2016-07-24T05:46:04.865Z,0
2016-07-24T05:47:04.206Z,0
2016-07-24T05:48:04.227Z,0
2016-07-24T05:49:05.718Z,0
2016-07-24T05:50:04.261Z,0
2016-07-24T05:51:05.013Z,0
2016-07-24T05:52:04.320Z,0
2016-07-24T05:53:04.343Z,0
2016-07-24T05:54:05.800Z,0
2016-07-24T05:55:05.118Z,0
2016-07-24T05:56:04.448Z,0
2016-07-24T05:57:04.478Z,0
2016-07-24T05:58:04.495Z,0
2016-07-24T05:59:04.525Z,0
2016-07-24T06:00:04.560Z,0
2016-07-24T06:01:05.292Z,0
2016-07-24T06:02:04.632Z,0
2016-07-24T06:03:04.639Z,0
2016-07-24T06:04:04.680Z,0
2016-07-24T06:05:04.699Z,0
2016-07-24T06:06:04.726Z,0
2016-07-24T06:07:04.760Z,0
2016-07-24T06:08:05.494Z,0
2016-07-24T06:09:05.550Z,5
2016-07-24T06:10:04.869Z,5
2016-07-24T06:11:04.873Z,5
2016-07-24T06:12:06.323Z,5
2016-07-24T06:13:04.957Z,5
2016-07-24T06:14:04.960Z,5
2016-07-24T06:15:05.700Z,5
2016-07-24T06:16:05.018Z,5
2016-07-24T06:17:05.057Z,5
2016-07-24T06:18:05.086Z,5
2016-07-24T06:19:05.109Z,5
2016-07-24T06:20:05.848Z,5
2016-07-24T06:21:05.876Z,5
2016-07-24T06:22:05.197Z,5
2016-07-24T06:23:05.221Z,5
2016-07-24T06:24:05.252Z,5
2016-07-24T06:25:06.006Z,5
2016-07-24T06:26:05.345Z,5
2016-07-24T06:27:06.066Z,5
2016-07-24T06:28:05.375Z,5
2016-07-24T06:29:05.409Z,5
2016-07-24T06:30:06.141Z,5
2016-07-24T06:31:05.459Z,5
2016-07-24T06:32:05.487Z,5
2016-07-24T06:33:05.518Z,5
2016-07-24T06:34:05.762Z,5
2016-07-24T06:35:05.578Z,5
2016-07-24T06:36:05.603Z,5
2016-07-24T06:37:05.656Z,5
2016-07-24T06:38:05.663Z,5
2016-07-24T06:39:06.406Z,5
2016-07-24T06:40:06.492Z,5
2016-07-24T06:41:05.762Z,5
2016-07-24T06:42:05.791Z,5
2016-07-24T06:43:06.524Z,5
2016-07-24T06:44:06.567Z,5
2016-07-24T06:45:05.871Z,5
2016-07-24T06:46:05.919Z,5
2016-07-24T06:47:05.940Z,5
2016-07-24T06:48:06.672Z,5
2016-07-24T06:49:06.702Z,5
2016-07-24T06:50:06.736Z,10
2016-07-24T06:51:06.048Z,10
2016-07-24T06:52:06.107Z,10
2016-07-24T06:53:06.117Z,10
2016-07-24T06:54:06.856Z,10
2016-07-24T06:55:06.167Z,10
2016-07-24T06:56:06.202Z,10
2016-07-24T06:57:06.234Z,10
2016-07-24T06:58:06.258Z,10
2016-07-24T06:59:06.307Z,10
2016-07-24T07:00:06.338Z,10
2016-07-24T07:01:06.352Z,10
2016-07-24T07:02:06.379Z,10
2016-07-24T07:03:07.131Z,10
2016-07-24T07:04:07.151Z,10
2016-07-24T07:05:06.470Z,10
2016-07-24T07:06:06.508Z,10
2016-07-24T07:07:06.535Z,10
2016-07-24T07:08:06.567Z,10
2016-07-24T07:09:06.582Z,10
2016-07-24T07:10:06.632Z,10
2016-07-24T07:11:06.653Z,10
2016-07-24T07:12:07.398Z,10
2016-07-24T07:13:08.879Z,10
2016-07-24T07:14:06.742Z,10
2016-07-24T07:15:06.773Z,10
2016-07-24T07:16:06.810Z,10
2016-07-24T07:17:06.850Z,10
2016-07-24T07:18:06.864Z,10
2016-07-24T07:19:06.889Z,10
2016-07-24T07:20:06.923Z,10
2016-07-24T07:21:07.668Z,10
2016-07-24T07:22:07.012Z,10
2016-07-24T07:23:07.014Z,10
2016-07-24T07:24:07.053Z,10
2016-07-24T07:25:07.086Z,10
2016-07-24T07:26:07.108Z,10
2016-07-24T07:27:07.849Z,10
2016-07-24T07:28:07.876Z,10
2016-07-24T07:29:07.199Z,10
2016-07-24T07:30:07.234Z,10
2016-07-24T07:31:07.967Z,10
2016-07-24T07:32:07.288Z,10
2016-07-24T07:33:07.337Z,10
2016-07-24T07:34:07.356Z,10
2016-07-24T07:35:08.096Z,10
2016-07-24T07:36:07.413Z,10
2016-07-24T07:37:07.444Z,10
2016-07-24T07:38:07.473Z,10
2016-07-24T07:39:07.504Z,10
2016-07-24T07:40:07.550Z,10
2016-07-24T07:41:07.572Z,10
2016-07-24T07:42:07.596Z,10
2016-07-24T07:43:07.654Z,10
2016-07-24T07:44:07.665Z,5
2016-07-24T07:45:07.690Z,5
2016-07-24T07:46:07.720Z,5
2016-07-24T07:47:07.750Z,5
2016-07-24T07:48:07.796Z,15
2016-07-24T07:49:07.833Z,5
2016-07-24T07:50:08.562Z,5
2016-07-24T07:51:07.885Z,5
2016-07-24T07:52:07.906Z,5
2016-07-24T07:53:07.939Z,5
2016-07-24T07:54:07.973Z,10
2016-07-24T07:55:08.005Z,15
2016-07-24T07:56:08.053Z,10
2016-07-24T07:57:08.062Z,10
2016-07-24T07:58:08.092Z,5
2016-07-24T07:59:08.125Z,5
2016-07-24T08:00:08.179Z,5
2016-07-24T08:01:08.190Z,5
2016-07-24T08:02:08.228Z,5
2016-07-24T08:03:08.250Z,5
2016-07-24T08:04:09.698Z,5
2016-07-24T08:05:09.022Z,10
2016-07-24T08:06:08.359Z,20
2016-07-24T08:07:08.381Z,15
2016-07-24T08:08:08.403Z,15
2016-07-24T08:09:08.439Z,20
2016-07-24T08:10:08.468Z,30
2016-07-24T08:11:09.211Z,60
2016-07-24T08:12:08.532Z,25
2016-07-24T08:13:08.565Z,45
2016-07-24T08:14:08.595Z,20
2016-07-24T08:15:09.334Z,20
2016-07-24T08:16:09.625Z,20
2016-07-24T08:17:08.695Z,5
2016-07-24T08:18:08.720Z,5
2016-07-24T08:19:09.466Z,5
2016-07-24T08:20:09.497Z,5
2016-07-24T08:21:09.539Z,5
2016-07-24T08:22:08.854Z,0
2016-07-24T08:23:09.591Z,0
2016-07-24T08:24:08.907Z,0
2016-07-24T08:25:08.940Z,0
2016-07-24T08:26:09.686Z,0
2016-07-24T08:27:09.005Z,0
2016-07-24T08:28:09.768Z,0
2016-07-24T08:29:09.769Z,5
2016-07-24T08:30:09.096Z,5
2016-07-24T08:31:09.127Z,15
2016-07-24T08:32:09.184Z,15
2016-07-24T08:33:09.203Z,20
2016-07-24T08:34:09.223Z,20
2016-07-24T08:35:09.966Z,20
2016-07-24T08:36:09.995Z,10
2016-07-24T08:37:09.315Z,10
2016-07-24T08:38:09.345Z,5
2016-07-24T08:39:09.381Z,5
2016-07-24T08:40:10.123Z,5
2016-07-24T08:41:09.440Z,5
2016-07-24T08:42:09.471Z,15
2016-07-24T08:43:09.505Z,20
2016-07-24T08:44:09.529Z,20
2016-07-24T08:45:10.295Z,20
2016-07-24T08:46:09.598Z,20
2016-07-24T08:47:09.634Z,20
2016-07-24T08:48:09.675Z,15
2016-07-24T08:49:09.902Z,15
2016-07-24T08:50:09.718Z,10
2016-07-24T08:51:11.176Z,10
2016-07-24T08:52:10.497Z,5
2016-07-24T08:53:10.526Z,10
2016-07-24T08:54:10.592Z,5
2016-07-24T08:55:09.882Z,5
2016-07-24T08:56:11.335Z,20
2016-07-24T08:57:10.651Z,10
2016-07-24T08:58:10.683Z,20
2016-07-24T08:59:10.262Z,20
2016-07-24T09:00:10.050Z,10
2016-07-24T09:02:10.827Z,15
2016-07-24T09:03:10.134Z,15
2016-07-24T09:04:10.184Z,15
2016-07-24T09:05:10.912Z,20
2016-07-24T09:06:10.231Z,20
2016-07-24T09:07:10.971Z,20
2016-07-24T09:08:10.389Z,20
2016-07-24T09:09:10.351Z,20
2016-07-24T09:10:10.355Z,20
2016-07-24T09:11:10.395Z,20
2016-07-24T09:12:10.418Z,20
2016-07-24T09:13:11.164Z,10
2016-07-24T09:14:10.501Z,5
2016-07-24T09:15:10.519Z,5
2016-07-24T09:16:10.548Z,5
2016-07-24T09:17:10.585Z,5
2016-07-24T09:18:10.618Z,0
2016-07-24T09:19:10.670Z,0
2016-07-24T09:20:11.416Z,5
2016-07-24T09:21:10.717Z,20
2016-07-24T09:22:10.741Z,20
2016-07-24T09:23:10.812Z,20
2016-07-24T09:24:10.807Z,20
2016-07-24T09:25:11.547Z,20
2016-07-24T09:26:12.347Z,5
2016-07-24T09:27:11.617Z,5
2016-07-24T09:28:11.647Z,5
2016-07-24T09:29:10.993Z,5
2016-07-24T09:30:11.939Z,5
2016-07-24T09:31:11.742Z,5
2016-07-24T09:32:11.070Z,5
2016-07-24T09:33:12.527Z,20
2016-07-24T09:34:11.845Z,20
2016-07-24T09:35:11.908Z,20
2016-07-24T09:36:11.197Z,20
2016-07-24T09:37:11.228Z,5
2016-07-24T09:38:11.975Z,10
2016-07-24T09:39:11.306Z,20
2016-07-24T09:40:11.328Z,15
2016-07-24T09:41:11.364Z,20
2016-07-24T09:42:11.390Z,20
2016-07-24T09:43:11.425Z,10
2016-07-24T09:44:11.523Z,15
2016-07-24T09:45:12.225Z,5
2016-07-24T09:46:12.232Z,5
2016-07-24T09:47:11.557Z,5
2016-07-24T09:48:12.299Z,5
2016-07-24T09:49:12.331Z,20
2016-07-24T09:50:11.652Z,10
2016-07-24T09:51:11.686Z,20
2016-07-24T09:52:11.729Z,15
2016-07-24T09:53:12.459Z,20
2016-07-24T09:54:13.211Z,5
2016-07-24T09:55:11.814Z,5
2016-07-24T09:56:11.850Z,5
2016-07-24T09:57:12.590Z,5
2016-07-24T09:58:12.625Z,5
2016-07-24T09:59:11.944Z,5
2016-07-24T10:00:11.996Z,5
2016-07-24T10:01:12.730Z,10
2016-07-24T10:02:12.758Z,15
2016-07-24T10:03:12.803Z,20
2016-07-24T10:04:13.530Z,20
2016-07-24T10:05:12.855Z,20
2016-07-24T10:06:12.174Z,20
2016-07-24T10:07:12.211Z,20
2016-07-24T10:08:12.956Z,20
2016-07-24T10:09:12.998Z,20
2016-07-24T10:10:12.309Z,20
2016-07-24T10:11:12.341Z,15
2016-07-24T10:12:12.377Z,20
2016-07-24T10:13:13.112Z,20
2016-07-24T10:14:12.438Z,15
2016-07-24T10:15:13.183Z,15
2016-07-24T10:16:12.500Z,15
2016-07-24T10:17:13.250Z,5
2016-07-24T10:18:13.316Z,5
2016-07-24T10:19:12.596Z,5
2016-07-24T10:20:12.679Z,5
2016-07-24T10:21:12.664Z,5
2016-07-24T10:22:12.708Z,5
2016-07-24T10:23:12.732Z,10
2016-07-24T10:24:12.772Z,10
2016-07-24T10:25:12.803Z,15
2016-07-24T10:26:14.256Z,20
2016-07-24T10:27:12.877Z,10
2016-07-24T10:28:12.899Z,10
2016-07-24T10:29:12.935Z,15
2016-07-24T10:30:12.963Z,15
2016-07-24T10:31:13.000Z,15
2016-07-24T10:32:13.030Z,15
2016-07-24T10:33:13.795Z,15
2016-07-24T10:34:13.114Z,15
2016-07-24T10:35:13.132Z,15
2016-07-24T10:36:13.868Z,15
2016-07-24T10:37:13.205Z,15
2016-07-24T10:38:13.245Z,5
2016-07-24T10:39:13.978Z,5
2016-07-24T10:40:14.016Z,5
2016-07-24T10:41:13.333Z,10
2016-07-24T10:42:13.382Z,10
2016-07-24T10:43:13.402Z,10
2016-07-24T10:44:13.430Z,5
2016-07-24T10:45:13.486Z,5
2016-07-24T10:46:14.923Z,15
2016-07-24T10:47:14.242Z,15
2016-07-24T10:48:14.277Z,15
2016-07-24T10:49:15.050Z,15
2016-07-24T10:50:13.636Z,15
2016-07-24T10:51:14.380Z,15
2016-07-24T10:52:13.897Z,15
2016-07-24T10:53:13.734Z,15
2016-07-24T10:54:13.765Z,15
2016-07-24T10:55:13.814Z,15
2016-07-24T10:56:13.832Z,15
2016-07-24T10:57:13.864Z,15
2016-07-24T10:58:13.902Z,15
2016-07-24T10:59:14.654Z,15
2016-07-24T11:00:13.982Z,15
2016-07-24T11:01:14.002Z,15
2016-07-24T11:02:14.750Z,10
2016-07-24T11:03:14.090Z,5
2016-07-24T11:04:14.112Z,15
2016-07-24T11:05:14.138Z,15
2016-07-24T11:06:14.169Z,10
2016-07-24T11:07:14.207Z,15
2016-07-24T11:08:14.258Z,15
2016-07-24T11:09:14.273Z,5
2016-07-24T11:10:14.308Z,5
2016-07-24T11:11:14.345Z,15
2016-07-24T11:12:14.377Z,5
2016-07-24T11:13:14.405Z,10
2016-07-24T11:14:15.147Z,5
2016-07-24T11:15:14.484Z,5
2016-07-24T11:16:14.505Z,5
2016-07-24T11:17:14.544Z,5
2016-07-24T11:18:14.577Z,5
2016-07-24T11:19:14.611Z,10
2016-07-24T11:20:14.644Z,5
2016-07-24T11:21:15.385Z,5
2016-07-24T11:22:15.421Z,10
2016-07-24T11:23:14.741Z,15
2016-07-24T11:24:14.780Z,15
2016-07-24T11:25:14.812Z,15
2016-07-24T11:26:14.859Z,15
2016-07-24T11:27:14.873Z,15
2016-07-24T11:28:15.626Z,15
2016-07-24T11:29:14.939Z,15
2016-07-24T11:30:14.976Z,15
2016-07-24T11:31:15.007Z,15
2016-07-24T11:32:15.769Z,15
2016-07-24T11:33:15.075Z,15
2016-07-24T11:34:15.822Z,15
2016-07-24T11:35:15.162Z,15
2016-07-24T11:36:15.887Z,15
2016-07-24T11:37:15.214Z,15
2016-07-24T11:38:15.255Z,15
2016-07-24T11:39:15.285Z,15
2016-07-24T11:40:16.025Z,15
2016-07-24T11:41:15.360Z,15
2016-07-24T11:42:15.391Z,15
2016-07-24T11:43:15.413Z,15
2016-07-24T11:44:15.461Z,15
2016-07-24T11:45:15.481Z,15
2016-07-24T11:46:15.731Z,15
2016-07-24T11:47:15.551Z,15
2016-07-24T11:48:15.581Z,15
2016-07-24T11:49:16.374Z,15
2016-07-24T11:50:15.654Z,15
2016-07-24T11:51:15.686Z,15
2016-07-24T11:52:15.748Z,15
2016-07-24T11:53:15.771Z,15
2016-07-24T11:54:15.792Z,15
2016-07-24T11:55:16.532Z,15
2016-07-24T11:56:15.867Z,15
2016-07-24T11:57:15.891Z,15
2016-07-24T11:58:16.631Z,15
2016-07-24T11:59:30.858Z,15
2016-07-24T12:00:16.705Z,15
2016-07-24T12:01:16.746Z,15
2016-07-24T12:02:16.773Z,15
2016-07-24T12:03:16.108Z,15
2016-07-24T12:04:16.125Z,15
2016-07-24T12:05:16.169Z,15
2016-07-24T12:06:16.905Z,15
2016-07-24T12:07:16.238Z,15
2016-07-24T12:08:16.982Z,15
2016-07-24T12:09:17.011Z,15
2016-07-24T12:10:16.337Z,15
2016-07-24T12:11:16.378Z,15
2016-07-24T12:12:16.403Z,15
2016-07-24T12:13:17.882Z,15
2016-07-24T12:14:16.480Z,15
2016-07-24T12:15:17.927Z,15
2016-07-24T12:16:17.984Z,15
2016-07-24T12:17:16.577Z,15
2016-07-24T12:18:17.330Z,15
2016-07-24T12:19:16.655Z,15
2016-07-24T12:20:17.449Z,15
2016-07-24T12:21:16.718Z,15
2016-07-24T12:22:16.760Z,15
2016-07-24T12:23:17.505Z,15
2016-07-24T12:24:17.560Z,15
2016-07-24T12:25:17.572Z,15
2016-07-24T12:26:16.890Z,15
2016-07-24T12:27:17.634Z,15
2016-07-24T12:28:17.669Z,15
2016-07-24T12:29:19.128Z,15
2016-07-24T12:30:17.033Z,10
2016-07-24T12:31:18.484Z,10
2016-07-24T12:32:17.100Z,10
2016-07-24T12:33:18.562Z,5
2016-07-24T12:34:17.182Z,5
2016-07-24T12:35:17.229Z,0
2016-07-24T12:36:17.957Z,0
2016-07-24T12:37:17.278Z,0
2016-07-24T12:38:17.308Z,0
2016-07-24T12:39:18.778Z,0
2016-07-24T12:40:18.096Z,0
2016-07-24T12:41:18.139Z,0
2016-07-24T12:42:17.466Z,0
2016-07-24T12:43:17.484Z,0
2016-07-24T12:44:18.227Z,0
2016-07-24T12:45:17.558Z,5
2016-07-24T12:46:19.022Z,5
2016-07-24T12:47:19.066Z,5
2016-07-24T12:48:18.368Z,10
2016-07-24T12:49:17.688Z,15
2016-07-24T12:50:19.171Z,15
2016-07-24T12:51:17.761Z,5
2016-07-24T12:52:19.216Z,5
2016-07-24T12:53:17.831Z,5
2016-07-24T12:54:17.860Z,10
2016-07-24T12:55:17.903Z,5
2016-07-24T12:56:17.929Z,10
2016-07-24T12:57:17.960Z,5
2016-07-24T12:58:19.449Z,5
2016-07-24T12:59:18.034Z,5
2016-07-24T13:00:18.070Z,0
2016-07-24T13:01:18.809Z,0
2016-07-24T13:02:18.843Z,5
2016-07-24T13:03:18.894Z,5
2016-07-24T13:04:18.200Z,10
2016-07-24T13:05:18.956Z,10
2016-07-24T13:06:19.024Z,5
2016-07-24T13:07:18.317Z,0
2016-07-24T13:08:19.057Z,0
2016-07-24T13:09:18.373Z,0
2016-07-24T13:10:19.837Z,0
2016-07-24T13:11:18.448Z,0
2016-07-24T13:12:19.187Z,0
2016-07-24T13:13:18.513Z,0
2016-07-24T13:14:18.552Z,0
2016-07-24T13:15:18.612Z,0
2016-07-24T13:16:20.046Z,5
2016-07-24T13:17:19.369Z,5
2016-07-24T13:18:19.400Z,10
2016-07-24T13:19:19.439Z,15
2016-07-24T13:20:19.470Z,10
2016-07-24T13:21:18.780Z,10
2016-07-24T13:22:18.816Z,10
2016-07-24T13:23:20.278Z,10
2016-07-24T13:24:19.599Z,10
2016-07-24T13:25:18.916Z,10
2016-07-24T13:26:19.685Z,5
2016-07-24T13:27:20.414Z,10
2016-07-24T13:28:19.742Z,5
2016-07-24T13:29:19.790Z,5
2016-07-24T13:30:20.537Z,10
2016-07-24T13:31:19.856Z,10
2016-07-24T13:32:20.615Z,10
2016-07-24T13:33:20.651Z,10
2016-07-24T13:34:19.966Z,10
2016-07-24T13:35:19.387Z,10
2016-07-24T13:36:20.014Z,10
2016-07-24T13:37:20.071Z,10
2016-07-24T13:38:20.803Z,10
2016-07-24T13:39:20.123Z,10
2016-07-24T13:40:21.572Z,10
2016-07-24T13:41:19.471Z,10
2016-07-24T13:42:20.233Z,10
2016-07-24T13:43:20.244Z,10
2016-07-24T13:44:21.024Z,10
2016-07-24T13:45:20.326Z,10
2016-07-24T13:46:19.644Z,10
2016-07-24T13:47:21.132Z,10
2016-07-24T13:48:20.419Z,10
2016-07-24T13:49:34.859Z,10
2016-07-24T13:50:21.204Z,10
2016-07-24T13:51:19.891Z,10
2016-07-24T13:52:19.848Z,10
2016-07-24T13:53:20.597Z,10
2016-07-24T13:54:20.621Z,10
2016-07-24T13:55:20.668Z,5
2016-07-24T13:56:19.980Z,10
2016-07-24T13:57:20.020Z,10
2016-07-24T13:58:20.049Z,10
2016-07-24T13:59:20.819Z,10
2016-07-24T14:00:20.120Z,0
2016-07-24T14:01:20.146Z,0
2016-07-24T14:02:20.177Z,0
2016-07-24T14:03:20.214Z,5
2016-07-24T14:04:20.258Z,0
2016-07-24T14:05:20.994Z,0
2016-07-24T14:06:21.034Z,0
2016-07-24T14:07:21.784Z,0
2016-07-24T14:08:21.093Z,0
2016-07-24T14:09:20.414Z,5
2016-07-24T14:10:20.490Z,10
2016-07-24T14:11:21.195Z,10
2016-07-24T14:12:21.233Z,10
2016-07-24T14:13:21.977Z,10
2016-07-24T14:14:20.600Z,10
2016-07-24T14:15:22.046Z,10
2016-07-24T14:16:20.671Z,10
2016-07-24T14:17:21.410Z,10
2016-07-24T14:18:20.734Z,5
2016-07-24T14:19:20.784Z,5
2016-07-24T14:20:21.014Z,5
2016-07-24T14:21:20.831Z,5
2016-07-24T14:22:20.869Z,5
2016-07-24T14:23:21.183Z,5
2016-07-24T14:24:21.680Z,5
2016-07-24T14:25:20.982Z,5
2016-07-24T14:26:20.999Z,5
2016-07-24T14:27:21.083Z,10
2016-07-24T14:28:21.237Z,10
2016-07-24T14:29:21.825Z,10
2016-07-24T14:30:21.883Z,10
2016-07-24T14:31:21.181Z,10
2016-07-24T14:32:21.211Z,10
2016-07-24T14:33:21.267Z,10
2016-07-24T14:34:21.280Z,10
2016-07-24T14:35:21.324Z,10
2016-07-24T14:36:22.065Z,5
2016-07-24T14:37:21.381Z,10